createdAt,value
2022-09-06T00:00:14.842Z,100584.19
2022-09-06T00:01:17.069Z,100587.77
2022-09-06T00:02:20.032Z,100579.80
2022-09-06T00:03:22.734Z,100579.80
2022-09-06T00:04:24.992Z,100581.61
2022-09-06T00:05:28.910Z,100583.34
2022-09-06T00:06:31.389Z,100582.49
2022-09-06T00:07:34.858Z,100589.57
2022-09-06T00:08:37.561Z,100581.61
2022-09-06T00:09:39.828Z,100573.98
2022-09-06T00:10:42.352Z,100573.98
2022-09-06T00:11:44.590Z,100586.14
2022-09-06T00:12:46.851Z,100586.14
2022-09-06T00:13:49.236Z,100585.27
2022-09-06T00:14:51.866Z,100586.14
2022-09-06T00:15:54.074Z,100587.95
2022-09-06T00:16:56.553Z,100586.14
2022-09-06T00:18:00.427Z,100587.10
2022-09-06T00:19:02.601Z,100585.27
2022-09-06T00:20:05.814Z,100580.88
2022-09-06T00:21:22.587Z,100587.95
2022-09-06T00:22:25.209Z,100585.27
2022-09-06T00:23:27.605Z,100583.56
2022-09-06T00:24:29.959Z,100588.06
2022-09-06T00:25:32.459Z,100584.52
2022-09-06T00:26:34.970Z,100581.83
2022-09-06T00:27:37.214Z,100583.67
2022-09-06T00:28:39.681Z,100576.45
2022-09-06T00:29:42.609Z,100581.83
2022-09-06T00:30:45.440Z,100580.98
2022-09-06T00:31:47.756Z,100584.52
2022-09-06T00:32:50.117Z,100580.98
2022-09-06T00:33:52.449Z,100572.92
2022-09-06T00:34:56.074Z,100580.98
2022-09-06T00:35:58.806Z,100579.14
2022-09-06T00:37:01.201Z,100577.41
2022-09-06T00:38:03.353Z,100580.10
2022-09-06T00:39:05.508Z,100576.56
2022-09-06T00:40:09.610Z,100577.41
2022-09-06T00:41:14.120Z,100580.10
2022-09-06T00:42:16.315Z,100584.52
2022-09-06T00:43:20.602Z,100586.36
2022-09-06T00:44:23.437Z,100588.17
2022-09-06T00:45:25.639Z,100586.36
2022-09-06T00:46:29.151Z,100581.95
2022-09-06T00:47:31.591Z,100581.95
2022-09-06T00:48:34.371Z,100581.09
2022-09-06T00:49:40.243Z,100590.01
2022-09-06T00:50:43.963Z,100587.32
2022-09-06T00:51:46.522Z,100589.16
2022-09-06T00:52:49.185Z,100590.01
2022-09-06T00:53:51.525Z,100583.78
2022-09-06T00:54:53.652Z,100577.52
2022-09-06T00:55:55.787Z,100587.32
2022-09-06T00:56:58.116Z,100583.02
2022-09-06T00:58:00.635Z,100577.63
2022-09-06T00:59:03.277Z,100586.55
2022-09-06T01:00:06.820Z,100577.63
2022-09-06T01:01:10.287Z,100580.33
2022-09-06T01:02:13.009Z,100573.98
2022-09-06T01:03:16.498Z,100578.48
2022-09-06T01:04:18.687Z,100578.48
2022-09-06T01:05:22.529Z,100582.90
2022-09-06T01:06:28.345Z,100581.17
2022-09-06T01:07:53.518Z,100584.85
2022-09-06T01:09:02.195Z,100574.95
2022-09-06T01:10:20.445Z,100579.47
2022-09-06T01:11:32.730Z,100578.59
2022-09-06T01:12:50.797Z,100581.39
2022-09-06T01:14:23.039Z,100586.88
2022-09-06T01:15:41.417Z,100579.77
2022-09-06T01:18:49.162Z,100582.80
2022-09-06T01:20:11.022Z,100591.70
2022-09-06T01:21:16.989Z,100589.23
2022-09-06T01:22:45.285Z,100585.80
2022-09-06T01:24:00.607Z,100592.98
2022-09-06T01:25:21.458Z,100588.67
2022-09-06T01:28:28.112Z,100589.13
2022-09-06T01:29:42.685Z,100582.66
2022-09-06T01:30:48.519Z,100589.11
2022-09-06T01:33:18.227Z,100586.76
2022-09-06T01:34:25.823Z,100582.08
2022-09-06T01:35:37.553Z,100588.33
2022-09-06T01:37:08.416Z,100593.70
2022-09-06T01:37:54.462Z,100591.02
2022-09-06T01:38:56.653Z,100589.28
2022-09-06T01:39:58.834Z,100593.78
2022-09-06T01:41:01.225Z,100593.78
2022-09-06T01:42:12.038Z,100592.83
2022-09-06T01:44:29.533Z,100593.87
2022-09-06T01:45:38.447Z,100590.03
2022-09-06T01:46:44.213Z,100597.17
2022-09-06T01:48:07.028Z,100595.33
2022-09-06T01:50:45.740Z,100597.30
2022-09-06T01:53:41.461Z,100592.87
2022-09-06T01:55:04.580Z,100598.90
2022-09-06T01:56:39.632Z,100597.17
2022-09-06T01:57:51.763Z,100598.97
2022-09-06T01:59:06.642Z,100598.09
2022-09-06T02:00:14.423Z,100595.52
2022-09-06T02:01:20.737Z,100603.58
2022-09-06T02:02:52.911Z,100598.31
2022-09-06T02:03:59.039Z,100601.95
2022-09-06T02:06:19.885Z,100596.00
2022-09-06T02:07:24.720Z,100601.95
2022-09-06T02:08:42.271Z,100598.52
2022-09-06T02:09:45.576Z,100604.75
2022-09-06T02:11:03.282Z,100601.10
2022-09-06T02:12:06.225Z,100606.48
2022-09-06T02:13:08.371Z,100602.94
2022-09-06T02:14:13.816Z,100602.94
2022-09-06T02:15:21.884Z,100601.95
2022-09-06T02:16:26.240Z,100599.27
2022-09-06T02:18:44.779Z,100602.11
2022-09-06T02:19:50.032Z,100600.14
2022-09-06T02:20:54.336Z,100606.37
2022-09-06T02:21:56.555Z,100608.10
2022-09-06T02:23:03.611Z,100613.48
2022-09-06T02:24:07.532Z,100609.83
2022-09-06T02:25:10.726Z,100610.68
2022-09-06T02:26:19.835Z,100614.22
2022-09-06T02:27:22.006Z,100607.99
2022-09-06T02:28:24.252Z,100608.84
2022-09-06T02:29:26.419Z,100609.73
2022-09-06T02:30:30.126Z,100607.92
2022-09-06T02:31:36.070Z,100612.34
2022-09-06T02:32:42.023Z,100604.27
2022-09-06T02:33:44.607Z,100605.12
2022-09-06T02:34:48.141Z,100605.12
2022-09-06T02:35:52.021Z,100607.81
2022-09-06T02:36:54.870Z,100603.28
2022-09-06T02:37:58.055Z,100606.86
2022-09-06T02:39:00.872Z,100603.28
2022-09-06T02:40:03.831Z,100605.12
2022-09-06T02:41:06.283Z,100601.48
2022-09-06T02:42:08.922Z,100612.34
2022-09-06T02:43:11.188Z,100612.34
2022-09-06T02:44:13.941Z,100618.56
2022-09-06T02:45:17.072Z,100614.03
2022-09-06T02:46:20.838Z,100615.77
2022-09-06T02:47:23.260Z,100621.14
2022-09-06T02:48:25.534Z,100613.96
2022-09-06T02:49:27.959Z,100621.14
2022-09-06T02:50:30.286Z,100611.27
2022-09-06T02:51:37.164Z,100616.55
2022-09-06T02:52:39.955Z,100612.97
2022-09-06T02:53:43.665Z,100619.23
2022-09-06T02:54:45.960Z,100619.23
2022-09-06T02:55:48.696Z,100611.16
2022-09-06T02:56:52.484Z,100605.79
2022-09-06T02:57:55.109Z,100608.48
2022-09-06T02:58:57.386Z,100615.55
2022-09-06T02:59:59.525Z,100611.06
2022-09-06T03:01:01.828Z,100609.33
2022-09-06T03:02:04.168Z,100612.79
2022-09-06T03:03:07.078Z,100616.44
2022-09-06T03:04:09.270Z,100620.93
2022-09-06T03:05:11.510Z,100616.44
2022-09-06T03:06:15.485Z,100613.75
2022-09-06T03:07:17.629Z,100611.06
2022-09-06T03:08:20.903Z,100614.59
2022-09-06T03:09:23.705Z,100612.79
2022-09-06T03:10:25.992Z,100610.10
2022-09-06T03:11:28.219Z,100612.79
2022-09-06T03:12:30.744Z,100613.64
2022-09-06T03:13:34.018Z,100612.79
2022-09-06T03:14:36.149Z,100612.79
2022-09-06T03:15:38.389Z,100625.23
2022-09-06T03:16:41.550Z,100610.95
2022-09-06T03:17:44.019Z,100619.86
2022-09-06T03:18:46.151Z,100617.17
2022-09-06T03:19:49.007Z,100620.75
2022-09-06T03:20:52.317Z,100619.02
2022-09-06T03:21:54.612Z,100626.13
2022-09-06T03:22:56.747Z,100619.86
2022-09-06T03:23:59.148Z,100625.23
2022-09-06T03:25:01.410Z,100621.70
2022-09-06T03:26:03.958Z,100622.55
2022-09-06T03:27:07.165Z,100619.86
2022-09-06T03:28:09.453Z,100620.75
2022-09-06T03:29:11.591Z,100625.13
2022-09-06T03:30:14.319Z,100626.97
2022-09-06T03:31:16.946Z,100624.28
2022-09-06T03:32:19.246Z,100628.81
2022-09-06T03:33:22.158Z,100631.50
2022-09-06T03:34:24.517Z,100634.19
2022-09-06T03:35:26.915Z,100629.66
2022-09-06T03:36:32.169Z,100640.41
2022-09-06T03:37:35.351Z,100632.34
2022-09-06T03:38:38.587Z,100636.87
2022-09-06T03:39:40.788Z,100635.89
2022-09-06T03:40:47.292Z,100637.73
2022-09-06T03:41:49.459Z,100639.45
2022-09-06T03:42:51.702Z,100643.95
2022-09-06T03:43:54.609Z,100641.27
2022-09-06T03:44:56.855Z,100642.99
2022-09-06T03:45:59.045Z,100645.69
2022-09-06T03:47:02.317Z,100642.99
2022-09-06T03:48:08.572Z,100640.30
2022-09-06T03:49:11.135Z,100638.58
2022-09-06T03:50:15.366Z,100618.67
2022-09-06T03:51:17.508Z,100618.67
2022-09-06T03:52:19.642Z,100645.69
2022-09-06T03:53:22.398Z,100648.48
2022-09-06T03:54:24.582Z,100642.25
2022-09-06T03:55:26.879Z,100642.25
2022-09-06T03:56:29.939Z,100647.63
2022-09-06T03:57:32.627Z,100652.12
2022-09-06T03:58:34.925Z,100644.06
2022-09-06T03:59:37.288Z,100648.48
2022-09-06T04:00:39.820Z,100644.94
2022-09-06T04:01:42.192Z,100644.06
2022-09-06T04:02:44.615Z,100651.16
2022-09-06T04:03:47.056Z,100653.00
2022-09-06T04:04:51.226Z,100658.38
2022-09-06T04:05:53.429Z,100654.70
2022-09-06T04:06:55.770Z,100658.38
2022-09-06T04:07:58.555Z,100659.23
2022-09-06T04:09:00.862Z,100660.08
2022-09-06T04:10:05.119Z,100662.77
2022-09-06T04:11:10.853Z,100665.45
2022-09-06T04:12:19.134Z,100668.14
2022-09-06T04:13:25.052Z,100668.25
2022-09-06T04:14:29.329Z,100668.36
2022-09-06T04:15:31.517Z,100667.50
2022-09-06T04:16:34.015Z,100669.31
2022-09-06T04:17:36.755Z,100665.67
2022-09-06T04:18:39.228Z,100668.36
2022-09-06T04:19:43.431Z,100663.94
2022-09-06T04:22:04.776Z,100667.75
2022-09-06T04:23:08.178Z,100665.78
2022-09-06T04:24:10.416Z,100669.31
2022-09-06T04:25:12.644Z,100665.78
2022-09-06T04:26:16.846Z,100665.78
2022-09-06T04:27:19.141Z,100665.78
2022-09-06T04:28:21.530Z,100667.50
2022-09-06T04:29:23.862Z,100665.67
2022-09-06T04:30:26.768Z,100668.36
2022-09-06T04:31:29.561Z,100662.98
2022-09-06T04:32:34.749Z,100660.30
2022-09-06T04:33:37.178Z,100660.30
2022-09-06T04:34:39.402Z,100665.67
2022-09-06T04:35:41.532Z,100654.91
2022-09-06T04:36:48.201Z,100665.67
2022-09-06T04:37:48.206Z,100658.56
2022-09-06T04:38:51.164Z,100668.36
2022-09-06T04:39:54.806Z,100677.37
2022-09-06T04:40:57.270Z,100664.82
2022-09-06T04:42:00.616Z,100668.36
2022-09-06T04:43:03.142Z,100669.31
2022-09-06T04:44:05.503Z,100669.31
2022-09-06T04:45:09.567Z,100666.63
2022-09-06T04:46:24.370Z,100668.47
2022-09-06T04:47:26.556Z,100668.47
2022-09-06T04:48:28.973Z,100670.20
2022-09-06T04:49:31.451Z,100665.78
2022-09-06T04:50:34.355Z,100666.63
2022-09-06T04:51:43.779Z,100666.63
2022-09-06T04:52:46.520Z,100663.94
2022-09-06T04:53:48.696Z,100663.09
2022-09-06T04:54:50.961Z,100659.55
2022-09-06T04:55:55.178Z,100668.57
2022-09-06T04:56:57.737Z,100667.61
2022-09-06T04:58:00.380Z,100664.92
2022-09-06T04:59:03.592Z,100668.47
2022-09-06T05:00:07.395Z,100678.37
2022-09-06T05:01:09.787Z,100682.86
2022-09-06T05:02:12.241Z,100672.00
2022-09-06T05:03:14.549Z,100680.95
2022-09-06T05:04:17.004Z,100677.37
2022-09-06T05:05:19.368Z,100677.37
2022-09-06T05:06:23.940Z,100685.44
2022-09-06T05:07:26.145Z,100681.91
2022-09-06T05:08:28.516Z,100676.53
2022-09-06T05:09:32.437Z,100676.53
2022-09-06T05:10:34.828Z,100679.11
2022-09-06T05:11:37.365Z,100679.11
2022-09-06T05:12:43.649Z,100673.73
2022-09-06T05:13:44.997Z,100673.73
2022-09-06T05:14:47.225Z,100680.06
2022-09-06T05:15:49.371Z,100671.05
2022-09-06T05:16:52.876Z,100679.11
2022-09-06T05:18:03.520Z,100679.99
2022-09-06T05:19:05.939Z,100672.00
2022-09-06T05:20:09.687Z,100681.91
2022-09-06T05:21:11.876Z,100677.37
2022-09-06T05:22:14.208Z,100667.61
2022-09-06T05:23:16.454Z,100679.32
2022-09-06T05:24:18.703Z,100677.48
2022-09-06T05:25:20.845Z,100681.05
2022-09-06T05:26:23.937Z,100674.91
2022-09-06T05:27:26.208Z,100684.70
2022-09-06T05:28:28.433Z,100679.32
2022-09-06T05:29:30.831Z,100677.59
2022-09-06T05:31:46.276Z,100661.59
2022-09-06T05:32:48.584Z,100679.32
2022-09-06T05:35:04.917Z,100665.28
2022-09-06T05:36:07.774Z,100666.73
2022-09-06T05:37:10.163Z,100664.92
2022-09-06T05:38:13.687Z,100666.73
2022-09-06T05:39:16.088Z,100663.09
2022-09-06T05:40:19.438Z,100663.94
2022-09-06T05:41:21.967Z,100662.13
2022-09-06T05:42:24.301Z,100665.67
2022-09-06T05:43:26.906Z,100662.98
2022-09-06T05:44:30.017Z,100663.86
2022-09-06T05:45:32.823Z,100668.25
2022-09-06T05:46:43.160Z,100660.19
2022-09-06T05:47:45.874Z,100666.45
2022-09-06T05:48:54.934Z,100669.13
2022-09-06T05:49:57.304Z,100669.13
2022-09-06T05:51:01.566Z,100667.41
2022-09-06T05:52:04.325Z,100668.25
2022-09-06T05:53:06.594Z,100666.55
2022-09-06T05:54:11.837Z,100666.55
2022-09-06T05:55:14.300Z,100667.41
2022-09-06T05:56:17.864Z,100668.36
2022-09-06T05:57:21.595Z,100669.23
2022-09-06T05:58:24.202Z,100666.63
2022-09-06T05:59:26.940Z,100666.55
2022-09-06T06:00:29.934Z,100666.55
2022-09-06T06:01:33.433Z,100662.98
2022-09-06T06:02:35.887Z,100657.05
2022-09-06T06:03:39.265Z,100657.05
2022-09-06T06:04:41.542Z,100661.25
2022-09-06T06:05:47.320Z,100662.98
2022-09-06T06:06:49.954Z,100667.50
2022-09-06T06:07:53.250Z,100665.67
2022-09-06T06:08:55.643Z,100670.20
2022-09-06T06:09:57.997Z,100669.31
2022-09-06T06:11:00.754Z,100671.05
2022-09-06T06:12:03.024Z,100672.88
2022-09-06T06:13:05.147Z,100680.95
2022-09-06T06:14:07.432Z,100682.75
2022-09-06T06:15:11.578Z,100680.06
2022-09-06T06:16:15.817Z,100680.95
2022-09-06T06:17:18.245Z,100680.95
2022-09-06T06:18:20.500Z,100678.26
2022-09-06T06:19:22.746Z,100672.00
2022-09-06T06:20:25.814Z,100678.26
2022-09-06T06:21:32.446Z,100672.88
2022-09-06T06:22:34.733Z,100668.47
2022-09-06T06:23:37.508Z,100682.75
2022-09-06T06:24:39.737Z,100687.28
2022-09-06T06:25:41.863Z,100675.67
2022-09-06T06:26:45.656Z,100685.55
2022-09-06T06:27:47.953Z,100681.73
2022-09-06T06:28:50.778Z,100684.06
2022-09-06T06:29:52.957Z,100678.64
2022-09-06T06:30:55.293Z,100686.12
2022-09-06T06:31:58.810Z,100685.76
2022-09-06T06:33:02.178Z,100686.34
2022-09-06T06:34:05.018Z,100689.63
2022-09-06T06:35:08.147Z,100690.01
2022-09-06T06:36:17.017Z,100684.84
2022-09-06T06:37:19.754Z,100690.31
2022-09-06T06:38:22.462Z,100686.06
2022-09-06T06:39:25.359Z,100693.73
2022-09-06T06:40:28.788Z,100692.59
2022-09-06T06:41:31.690Z,100687.04
2022-09-06T06:42:33.978Z,100685.77
2022-09-06T06:43:36.350Z,100694.11
2022-09-06T06:44:38.675Z,100686.35
2022-09-06T06:45:40.860Z,100683.83
2022-09-06T06:46:43.371Z,100686.52
2022-09-06T06:47:50.434Z,100690.18
2022-09-06T06:48:55.059Z,100691.42
2022-09-06T06:49:57.897Z,100691.96
2022-09-06T06:51:00.807Z,100695.25
2022-09-06T06:52:03.634Z,100691.97
2022-09-06T06:53:06.397Z,100689.48
2022-09-06T06:54:09.487Z,100691.22
2022-09-06T06:55:11.920Z,100695.44
2022-09-06T06:56:19.815Z,100700.42
2022-09-06T06:57:22.131Z,100698.47
2022-09-06T06:58:24.554Z,100694.64
2022-09-06T06:59:28.129Z,100695.34
2022-09-06T07:00:30.680Z,100700.41
2022-09-06T07:01:33.659Z,100686.05
2022-09-06T07:02:36.474Z,100696.69
2022-09-06T07:03:38.902Z,100694.85
2022-09-06T07:04:43.208Z,100701.95
2022-09-06T07:08:06.532Z,100689.50
2022-09-06T07:09:09.297Z,100687.30
2022-09-06T07:11:21.588Z,100697.64
2022-09-06T07:12:25.427Z,100701.02
2022-09-06T07:13:28.940Z,100694.60
2022-09-06T07:14:33.094Z,100696.23
2022-09-06T07:15:35.668Z,100688.35
2022-09-06T07:16:37.948Z,100688.35
2022-09-06T07:17:40.190Z,100693.36
2022-09-06T07:18:42.803Z,100696.80
2022-09-06T07:21:53.416Z,100709.95
2022-09-06T07:24:09.485Z,100705.43
2022-09-06T07:25:14.436Z,100696.62
2022-09-06T07:26:18.687Z,100694.89
2022-09-06T07:28:25.222Z,100702.00
2022-09-06T07:29:27.559Z,100702.00
2022-09-06T07:30:30.320Z,100696.04
2022-09-06T07:32:38.068Z,100689.43
2022-09-06T07:33:41.305Z,100694.96
2022-09-06T07:34:43.588Z,100699.38
2022-09-06T07:35:59.780Z,100696.50
2022-09-06T07:37:02.961Z,100694.50
2022-09-06T07:38:05.486Z,100692.31
2022-09-06T07:39:08.333Z,100703.70
2022-09-06T07:40:11.560Z,100697.28
2022-09-06T07:41:13.930Z,100698.16
2022-09-06T07:42:16.304Z,100699.97
2022-09-06T07:43:18.543Z,100691.91
2022-09-06T07:44:20.680Z,100700.65
2022-09-06T07:45:23.005Z,100693.25
2022-09-06T07:46:25.396Z,100699.41
2022-09-06T07:48:33.624Z,100691.61
2022-09-06T07:49:36.247Z,100692.50
2022-09-06T07:50:47.837Z,100700.35
2022-09-06T07:51:43.746Z,100698.52
2022-09-06T07:54:06.986Z,100691.91
2022-09-06T07:54:57.397Z,100687.89
2022-09-06T07:56:00.706Z,100693.72
2022-09-06T07:57:03.010Z,100686.45
2022-09-06T07:58:05.335Z,100682.39
2022-09-06T07:59:08.391Z,100686.31
2022-09-06T08:00:11.698Z,100687.02
2022-09-06T08:01:30.992Z,100688.03
2022-09-06T08:02:34.097Z,100686.53
2022-09-06T08:03:36.801Z,100682.16
2022-09-06T08:04:38.930Z,100686.12
2022-09-06T08:09:59.856Z,100674.80
2022-09-06T08:11:02.311Z,100675.73
2022-09-06T08:12:05.411Z,100678.36
2022-09-06T08:13:07.693Z,100673.85
2022-09-06T08:14:10.042Z,100673.58
2022-09-06T08:15:12.165Z,100676.96
2022-09-06T08:16:15.750Z,100673.19
2022-09-06T08:17:18.005Z,100671.55
2022-09-06T08:18:20.365Z,100675.41
2022-09-06T08:19:23.076Z,100678.69
2022-09-06T08:20:25.487Z,100680.25
2022-09-06T08:21:29.092Z,100676.25
2022-09-06T08:22:32.089Z,100671.78
2022-09-06T08:23:34.642Z,100666.92
2022-09-06T08:24:36.905Z,100668.33
2022-09-06T08:25:41.781Z,100660.79
2022-09-06T08:26:46.943Z,100676.25
2022-09-06T08:27:49.182Z,100672.30
2022-09-06T08:30:09.517Z,100659.32
2022-09-06T08:31:13.453Z,100664.95
2022-09-06T08:32:16.912Z,100657.40
2022-09-06T08:33:21.077Z,100666.89
2022-09-06T08:34:23.439Z,100661.79
2022-09-06T08:35:26.652Z,100661.79
2022-09-06T08:36:29.865Z,100664.19
2022-09-06T08:37:32.131Z,100665.83
2022-09-06T08:38:34.270Z,100654.91
2022-09-06T08:39:36.519Z,100651.19
2022-09-06T08:40:39.318Z,100658.19
2022-09-06T08:41:51.600Z,100652.83
2022-09-06T08:42:54.735Z,100649.07
2022-09-06T08:45:11.629Z,100657.00
2022-09-06T08:46:15.335Z,100651.20
2022-09-06T08:47:19.203Z,100647.58
2022-09-06T08:48:24.185Z,100653.63
2022-09-06T08:49:28.732Z,100646.27
2022-09-06T08:50:31.756Z,100643.40
2022-09-06T08:51:52.789Z,100646.86
2022-09-06T08:53:16.803Z,100647.62
2022-09-06T08:55:52.867Z,100647.81
2022-09-06T08:58:45.120Z,100643.59
2022-09-06T09:01:12.348Z,100634.99
2022-09-06T09:02:20.264Z,100640.16
2022-09-06T09:03:33.808Z,100640.06
2022-09-06T09:04:38.194Z,100634.50
2022-09-06T09:05:40.661Z,100642.55
2022-09-06T09:06:44.858Z,100632.70
2022-09-06T09:07:54.621Z,100632.50
2022-09-06T09:09:05.562Z,100635.94
2022-09-06T09:10:16.880Z,100649.19
2022-09-06T09:11:22.557Z,100644.77
2022-09-06T09:12:24.743Z,100648.50
2022-09-06T09:13:48.677Z,100643.23
2022-09-06T09:14:53.650Z,100650.39
2022-09-06T09:15:56.380Z,100641.41
2022-09-06T09:17:02.851Z,100640.55
2022-09-06T09:18:05.257Z,100639.59
2022-09-06T09:19:08.148Z,100642.19
2022-09-06T09:20:11.809Z,100637.57
2022-09-06T09:21:16.246Z,100640.05
2022-09-06T09:22:20.118Z,100634.69
2022-09-06T09:23:22.377Z,100632.79
2022-09-06T09:24:24.638Z,100630.00
2022-09-06T09:25:27.696Z,100635.17
2022-09-06T09:27:44.420Z,100629.03
2022-09-06T09:32:43.303Z,100633.15
2022-09-06T09:35:19.107Z,100639.97
2022-09-06T09:36:23.517Z,100644.48
2022-09-06T09:38:34.668Z,100639.39
2022-09-06T09:39:37.896Z,100638.64
2022-09-06T09:40:54.513Z,100642.17
2022-09-06T09:41:57.719Z,100627.91
2022-09-06T09:44:25.396Z,100630.77
2022-09-06T09:45:31.038Z,100626.92
2022-09-06T09:46:38.587Z,100626.92
2022-09-06T09:47:40.936Z,100644.00
2022-09-06T09:50:31.038Z,100630.97
2022-09-06T09:52:47.639Z,100623.19
2022-09-06T09:55:06.372Z,100624.44
2022-09-06T09:56:09.229Z,100632.30
2022-09-06T09:57:15.260Z,100631.55
2022-09-06T09:59:51.761Z,100640.64
2022-09-06T10:01:21.815Z,100634.30
2022-09-06T10:02:32.585Z,100633.45
2022-09-06T10:03:34.927Z,100634.40
2022-09-06T10:04:45.719Z,100643.53
2022-09-06T10:05:42.723Z,100641.98
2022-09-06T10:07:53.887Z,100637.77
2022-09-06T10:08:56.131Z,100636.89
2022-09-06T10:10:03.764Z,100637.88
2022-09-06T10:11:07.134Z,100639.57
2022-09-06T10:12:29.719Z,100633.36
2022-09-06T10:13:32.132Z,100643.23
2022-09-06T10:14:45.417Z,100629.83
2022-09-06T10:15:48.378Z,100632.41
2022-09-06T10:16:51.277Z,100633.26
2022-09-06T10:17:53.408Z,100637.77
2022-09-06T10:18:55.661Z,100634.20
2022-09-06T10:21:13.089Z,100636.03
2022-09-06T10:25:42.941Z,100625.79
2022-09-06T10:26:48.881Z,100628.19
2022-09-06T10:28:28.962Z,100628.19
2022-09-06T10:29:39.002Z,100623.57
2022-09-06T10:31:05.728Z,100624.35
2022-09-06T10:32:21.106Z,100625.11
2022-09-06T10:35:00.150Z,100627.22
2022-09-06T10:36:06.802Z,100634.30
2022-09-06T10:37:22.008Z,100617.55
2022-09-06T10:38:43.876Z,100620.23
2022-09-06T10:39:55.032Z,100614.02
2022-09-06T10:41:01.534Z,100616.60
2022-09-06T10:42:21.941Z,100606.63
2022-09-06T10:43:27.697Z,100616.41
2022-09-06T10:44:59.416Z,100610.09
2022-09-06T10:46:03.565Z,100620.82
2022-09-06T10:47:12.128Z,100610.36
2022-09-06T10:48:25.014Z,100624.81
2022-09-06T10:49:27.576Z,100626.75
2022-09-06T10:51:00.248Z,100629.63
2022-09-06T10:52:02.982Z,100627.80
2022-09-06T10:53:09.343Z,100619.84
2022-09-06T10:54:13.992Z,100627.89
2022-09-06T10:55:17.048Z,100615.53
2022-09-06T10:59:35.652Z,100613.34
2022-09-06T11:00:26.068Z,100617.81
2022-09-06T11:01:36.234Z,100616.97
2022-09-06T11:02:42.651Z,100625.02
2022-09-06T11:05:58.838Z,100627.80
2022-09-06T11:07:05.877Z,100633.16
2022-09-06T11:09:35.453Z,100623.28
2022-09-06T11:10:39.037Z,100622.33
2022-09-06T11:11:57.270Z,100621.45
2022-09-06T11:13:16.440Z,100624.23
2022-09-06T11:14:18.645Z,100614.45
2022-09-06T11:15:22.040Z,100614.61
2022-09-06T11:19:10.163Z,100622.72
2022-09-06T11:20:35.832Z,100629.43
2022-09-06T11:21:42.110Z,100619.55
2022-09-06T11:22:58.511Z,100621.19
2022-09-06T11:24:10.508Z,100620.14
2022-09-06T11:25:25.712Z,100617.27
2022-09-06T11:26:52.193Z,100619.75
2022-09-06T11:27:58.109Z,100624.27
2022-09-06T11:30:15.171Z,100614.38
2022-09-06T11:33:47.205Z,100613.22
2022-09-06T11:34:59.650Z,100624.45
2022-09-06T11:36:25.497Z,100619.94
2022-09-06T11:37:33.282Z,100614.47
2022-09-06T11:38:35.962Z,100612.77
2022-09-06T11:40:47.413Z,100608.05
2022-09-06T11:41:51.373Z,100616.01
2022-09-06T11:42:57.332Z,100611.42
2022-09-06T11:43:59.539Z,100615.84
2022-09-06T11:45:11.864Z,100618.42
2022-09-06T11:46:38.757Z,100621.75
2022-09-06T11:47:42.316Z,100622.64
2022-09-06T11:50:23.967Z,100608.82
2022-09-06T11:51:40.999Z,100614.95
2022-09-06T11:53:08.649Z,100616.69
2022-09-06T11:54:17.533Z,100623.00
2022-09-06T11:55:22.839Z,100619.38
2022-09-06T11:56:32.124Z,100617.64
2022-09-06T11:57:35.396Z,100614.20
2022-09-06T11:58:47.334Z,100614.30
2022-09-06T12:00:01.277Z,100620.52
2022-09-06T12:01:16.346Z,100614.30
2022-09-06T12:02:42.931Z,100613.32
2022-09-06T12:04:10.626Z,100605.17
2022-09-06T12:05:03.269Z,100615.05
2022-09-06T12:06:20.220Z,100607.86
2022-09-06T12:07:24.502Z,100612.27
2022-09-06T12:08:32.165Z,100606.81
2022-09-06T12:11:02.067Z,100601.62
2022-09-06T12:12:05.163Z,100604.02
2022-09-06T12:14:41.046Z,100597.03
2022-09-06T12:17:04.613Z,100598.77
2022-09-06T12:18:08.252Z,100598.48
2022-09-06T12:19:14.397Z,100601.17
2022-09-06T12:21:55.650Z,100584.09
2022-09-06T12:22:57.855Z,100591.87
2022-09-06T12:24:01.264Z,100590.98
2022-09-06T12:25:05.257Z,100600.77
2022-09-06T12:26:09.051Z,100588.20
2022-09-06T12:28:38.976Z,100583.78
2022-09-06T12:29:56.676Z,100586.09
2022-09-06T12:30:59.065Z,100580.72
2022-09-06T12:32:01.462Z,100580.72
2022-09-06T12:33:29.410Z,100575.25
2022-09-06T12:37:06.155Z,100579.47
2022-09-06T12:38:14.739Z,100576.78
2022-09-06T12:39:17.044Z,100574.98
2022-09-06T12:40:20.641Z,100576.89
2022-09-06T12:41:24.297Z,100578.72
2022-09-06T12:42:26.733Z,100578.82
2022-09-06T12:43:28.975Z,100570.77
2022-09-06T12:44:40.339Z,100576.14
2022-09-06T12:45:43.535Z,100576.98
2022-09-06T12:46:50.980Z,100571.52
2022-09-06T12:49:21.465Z,100568.25
2022-09-06T12:50:25.146Z,100578.82
2022-09-06T12:51:27.373Z,100574.41
2022-09-06T12:52:30.228Z,100588.67
2022-09-06T12:53:33.521Z,100562.04
2022-09-06T12:56:07.028Z,100563.88
2022-09-06T12:58:29.086Z,100566.62
2022-09-06T12:59:31.900Z,100574.41
2022-09-06T13:00:38.761Z,100564.52
2022-09-06T13:03:02.498Z,100564.89
2022-09-06T13:05:39.697Z,100567.78
2022-09-06T13:06:43.753Z,100569.41
2022-09-06T13:07:50.350Z,100556.20
2022-09-06T13:08:53.553Z,100567.03
2022-09-06T13:09:55.898Z,100567.03
2022-09-06T13:10:58.249Z,100556.20
2022-09-06T13:12:03.566Z,100562.34
2022-09-06T13:13:05.757Z,100566.73
2022-09-06T13:15:26.925Z,100555.20
2022-09-06T13:16:33.164Z,100554.84
2022-09-06T13:17:35.538Z,100555.82
2022-09-06T13:18:41.029Z,100559.25
2022-09-06T13:19:43.760Z,100558.41
2022-09-06T13:21:03.178Z,100556.67
2022-09-06T13:23:21.682Z,100561.35
2022-09-06T13:24:34.029Z,100560.31
2022-09-06T13:25:50.224Z,100555.82
2022-09-06T13:26:52.616Z,100553.14
2022-09-06T13:27:55.082Z,100556.57
2022-09-06T13:28:57.212Z,100562.89
2022-09-06T13:30:02.429Z,100562.99
2022-09-06T13:31:19.634Z,100560.52
2022-09-06T13:32:23.642Z,100556.09
2022-09-06T13:33:25.997Z,100556.20
2022-09-06T13:34:30.633Z,100568.66
2022-09-06T13:35:35.371Z,100558.88
2022-09-06T13:36:38.184Z,100558.98
2022-09-06T13:37:41.403Z,100559.84
2022-09-06T13:38:44.406Z,100559.84
2022-09-06T13:39:48.103Z,100558.78
2022-09-06T13:41:10.542Z,100558.03
2022-09-06T13:41:56.247Z,100559.84
2022-09-06T13:43:01.502Z,100557.16
2022-09-06T13:44:18.740Z,100564.45
2022-09-06T13:45:28.011Z,100556.50
2022-09-06T13:46:34.624Z,100555.83
2022-09-06T13:47:36.931Z,100558.41
2022-09-06T13:48:40.134Z,100550.56
2022-09-06T13:49:42.674Z,100555.08
2022-09-06T13:50:45.472Z,100554.20
2022-09-06T13:51:47.801Z,100554.12
2022-09-06T13:52:51.029Z,100546.92
2022-09-06T13:54:10.253Z,100552.30
2022-09-06T13:55:14.918Z,100554.12
2022-09-06T13:56:18.113Z,100554.03
2022-09-06T13:57:24.300Z,100549.51
2022-09-06T13:58:25.481Z,100559.29
2022-09-06T13:59:28.237Z,100554.77
2022-09-06T14:00:30.697Z,100550.36